sensor_id;sensor_type;location;lat;lon;timestamp;temperature;humidity
7155;DHT22;3619;53.784;10.440;2023-04-15T00:00:40;6.80;99.90
7155;DHT22;3619;53.784;10.440;2023-04-15T00:03:10;6.80;99.90
7155;DHT22;3619;53.784;10.440;2023-04-15T00:05:56;6.80;99.90
7155;DHT22;3619;53.784;10.440;2023-04-15T00:08:36;6.80;99.90
7155;DHT22;3619;53.784;10.440;2023-04-15T00:11:12;6.80;99.90
7155;DHT22;3619;53.784;10.440;2023-04-15T00:13:41;6.80;99.90
7155;DHT22;3619;53.784;10.440;2023-04-15T00:16:27;6.80;99.90
7155;DHT22;3619;53.784;10.440;2023-04-15T00:18:57;6.80;99.90
7155;DHT22;3619;53.784;10.440;2023-04-15T00:21:32;6.80;99.90
7155;DHT22;3619;53.784;10.440;2023-04-15T00:24:06;6.80;99.90
7155;DHT22;3619;53.784;10.440;2023-04-15T00:26:41;6.80;99.90
7155;DHT22;3619;53.784;10.440;2023-04-15T00:29:20;6.80;99.90
7155;DHT22;3619;53.784;10.440;2023-04-15T00:32:13;6.90;99.90
7155;DHT22;3619;53.784;10.440;2023-04-15T00:35:15;6.80;99.90
7155;DHT22;3619;53.784;10.440;2023-04-15T00:38:03;6.90;99.90
7155;DHT22;3619;53.784;10.440;2023-04-15T00:40:57;6.90;99.90
7155;DHT22;3619;53.784;10.440;2023-04-15T00:50:19;6.90;99.90
7155;DHT22;3619;53.784;10.440;2023-04-15T00:53:14;7.00;99.90
7155;DHT22;3619;53.784;10.440;2023-04-15T00:57:30;7.00;99.90
7155;DHT22;3619;53.784;10.440;2023-04-15T01:00:30;7.00;99.90
7155;DHT22;3619;53.784;10.440;2023-04-15T01:03:48;7.00;99.90
7155;DHT22;3619;53.784;10.440;2023-04-15T01:10:30;7.00;99.90
7155;DHT22;3619;53.784;10.440;2023-04-15T01:13:14;6.90;99.90
7155;DHT22;3619;53.784;10.440;2023-04-15T01:15:52;7.00;99.90
7155;DHT22;3619;53.784;10.440;2023-04-15T01:18:24;7.00;99.90
7155;DHT22;3619;53.784;10.440;2023-04-15T01:21:48;7.00;99.90
7155;DHT22;3619;53.784;10.440;2023-04-15T01:27:37;7.00;99.90
7155;DHT22;3619;53.784;10.440;2023-04-15T01:31:10;7.00;99.90
7155;DHT22;3619;53.784;10.440;2023-04-15T01:33:56;7.00;99.90
7155;DHT22;3619;53.784;10.440;2023-04-15T01:36:33;7.00;99.90
7155;DHT22;3619;53.784;10.440;2023-04-15T01:39:06;7.10;99.90
7155;DHT22;3619;53.784;10.440;2023-04-15T01:41:53;7.10;99.90
7155;DHT22;3619;53.784;10.440;2023-04-15T01:44:32;7.10;99.90
7155;DHT22;3619;53.784;10.440;2023-04-15T02:04:54;7.10;99.90
7155;DHT22;3619;53.784;10.440;2023-04-15T02:13:23;7.10;99.90
7155;DHT22;3619;53.784;10.440;2023-04-15T02:18:36;7.20;99.90
7155;DHT22;3619;53.784;10.440;2023-04-15T02:21:47;7.20;99.90
7155;DHT22;3619;53.784;10.440;2023-04-15T02:25:13;7.10;99.90
7155;DHT22;3619;53.784;10.440;2023-04-15T02:27:39;7.20;99.90
7155;DHT22;3619;53.784;10.440;2023-04-15T02:33:38;7.20;99.90
7155;DHT22;3619;53.784;10.440;2023-04-15T02:34:19;7.10;99.90
7155;DHT22;3619;53.784;10.440;2023-04-15T02:37:04;7.20;99.90
7155;DHT22;3619;53.784;10.440;2023-04-15T02:39:42;7.20;99.90
7155;DHT22;3619;53.784;10.440;2023-04-15T02:42:21;7.20;99.90
7155;DHT22;3619;53.784;10.440;2023-04-15T02:44:54;7.20;99.90
7155;DHT22;3619;53.784;10.440;2023-04-15T02:47:50;7.20;99.90
7155;DHT22;3619;53.784;10.440;2023-04-15T02:50:19;7.20;99.90
7155;DHT22;3619;53.784;10.440;2023-04-15T02:53:05;7.20;99.90
7155;DHT22;3619;53.784;10.440;2023-04-15T02:58:45;7.20;99.90
7155;DHT22;3619;53.784;10.440;2023-04-15T02:59:29;7.20;99.90
7155;DHT22;3619;53.784;10.440;2023-04-15T03:02:10;7.20;99.90
7155;DHT22;3619;53.784;10.440;2023-04-15T03:05:24;7.20;99.90
7155;DHT22;3619;53.784;10.440;2023-04-15T03:08:35;7.20;99.90
7155;DHT22;3619;53.784;10.440;2023-04-15T03:11:04;7.20;99.90
7155;DHT22;3619;53.784;10.440;2023-04-15T03:13:36;7.20;99.90
7155;DHT22;3619;53.784;10.440;2023-04-15T03:16:07;7.20;99.90
7155;DHT22;3619;53.784;10.440;2023-04-15T03:18:36;7.20;99.90
7155;DHT22;3619;53.784;10.440;2023-04-15T03:21:08;7.20;99.90
7155;DHT22;3619;53.784;10.440;2023-04-15T03:27:06;7.20;99.90
7155;DHT22;3619;53.784;10.440;2023-04-15T03:32:04;7.20;99.90
7155;DHT22;3619;53.784;10.440;2023-04-15T03:36:12;7.30;99.90
7155;DHT22;3619;53.784;10.440;2023-04-15T03:38:57;7.20;99.90
7155;DHT22;3619;53.784;10.440;2023-04-15T03:45:09;7.30;99.90
7155;DHT22;3619;53.784;10.440;2023-04-15T03:47:53;7.30;99.90
7155;DHT22;3619;53.784;10.440;2023-04-15T03:50:23;7.30;99.90
7155;DHT22;3619;53.784;10.440;2023-04-15T03:56:55;7.30;99.90
7155;DHT22;3619;53.784;10.440;2023-04-15T03:59:27;7.30;99.90
7155;DHT22;3619;53.784;10.440;2023-04-15T04:02:22;7.20;99.90
7155;DHT22;3619;53.784;10.440;2023-04-15T04:04:54;7.20;99.90
7155;DHT22;3619;53.784;10.440;2023-04-15T04:08:02;7.20;99.90
7155;DHT22;3619;53.784;10.440;2023-04-15T04:12:29;7.30;99.90
7155;DHT22;3619;53.784;10.440;2023-04-15T04:14:19;7.30;99.90
7155;DHT22;3619;53.784;10.440;2023-04-15T04:28:00;7.30;99.90
7155;DHT22;3619;53.784;10.440;2023-04-15T04:34:20;7.20;99.90
7155;DHT22;3619;53.784;10.440;2023-04-15T04:37:16;7.30;99.90
7155;DHT22;3619;53.784;10.440;2023-04-15T04:41:39;7.20;99.90
7155;DHT22;3619;53.784;10.440;2023-04-15T05:39:47;7.40;99.90
7155;DHT22;3619;53.784;10.440;2023-04-15T05:42:21;7.30;99.90
7155;DHT22;3619;53.784;10.440;2023-04-15T05:44:53;7.30;99.90
7155;DHT22;3619;53.784;10.440;2023-04-15T05:47:37;7.30;99.90
7155;DHT22;3619;53.784;10.440;2023-04-15T05:50:06;7.30;99.90
7155;DHT22;3619;53.784;10.440;2023-04-15T05:52:40;7.30;99.90
7155;DHT22;3619;53.784;10.440;2023-04-15T05:58:42;7.30;99.90
7155;DHT22;3619;53.784;10.440;2023-04-15T06:01:42;7.30;99.90
7155;DHT22;3619;53.784;10.440;2023-04-15T06:12:04;7.30;99.90
7155;DHT22;3619;53.784;10.440;2023-04-15T06:13:34;7.30;99.90
7155;DHT22;3619;53.784;10.440;2023-04-15T06:16:16;7.30;99.90
7155;DHT22;3619;53.784;10.440;2023-04-15T06:18:47;7.30;99.90
7155;DHT22;3619;53.784;10.440;2023-04-15T06:21:18;7.30;99.90
7155;DHT22;3619;53.784;10.440;2023-04-15T06:23:48;7.30;99.90
7155;DHT22;3619;53.784;10.440;2023-04-15T06:26:16;7.30;99.90
7155;DHT22;3619;53.784;10.440;2023-04-15T06:28:55;7.30;99.90
7155;DHT22;3619;53.784;10.440;2023-04-15T06:31:38;7.30;99.90
7155;DHT22;3619;53.784;10.440;2023-04-15T06:34:07;7.30;99.90
7155;DHT22;3619;53.784;10.440;2023-04-15T06:36:49;7.30;99.90
7155;DHT22;3619;53.784;10.440;2023-04-15T06:39:22;7.30;99.90
7155;DHT22;3619;53.784;10.440;2023-04-15T06:41:51;7.30;99.90
7155;DHT22;3619;53.784;10.440;2023-04-15T06:44:21;7.30;99.90
7155;DHT22;3619;53.784;10.440;2023-04-15T06:46:54;7.30;99.90
7155;DHT22;3619;53.784;10.440;2023-04-15T06:49:25;7.30;99.90
7155;DHT22;3619;53.784;10.440;2023-04-15T06:51:53;7.30;99.90
7155;DHT22;3619;53.784;10.440;2023-04-15T06:54:27;7.30;99.90
7155;DHT22;3619;53.784;10.440;2023-04-15T06:56:55;7.30;99.90
7155;DHT22;3619;53.784;10.440;2023-04-15T06:59:24;7.30;99.90
7155;DHT22;3619;53.784;10.440;2023-04-15T07:01:57;7.40;99.90
7155;DHT22;3619;53.784;10.440;2023-04-15T07:04:30;7.40;99.90
7155;DHT22;3619;53.784;10.440;2023-04-15T07:07:07;7.40;99.90
7155;DHT22;3619;53.784;10.440;2023-04-15T07:10:00;7.50;99.90
7155;DHT22;3619;53.784;10.440;2023-04-15T07:12:34;7.50;99.90
7155;DHT22;3619;53.784;10.440;2023-04-15T07:15:03;7.60;99.90
7155;DHT22;3619;53.784;10.440;2023-04-15T07:17:33;7.50;99.90
7155;DHT22;3619;53.784;10.440;2023-04-15T07:20:19;7.50;99.90
7155;DHT22;3619;53.784;10.440;2023-04-15T07:22:50;7.60;99.90
7155;DHT22;3619;53.784;10.440;2023-04-15T07:25:22;7.60;99.90
7155;DHT22;3619;53.784;10.440;2023-04-15T07:28:10;7.60;99.90
7155;DHT22;3619;53.784;10.440;2023-04-15T07:30:55;7.60;99.90
7155;DHT22;3619;53.784;10.440;2023-04-15T07:33:31;7.70;99.90
7155;DHT22;3619;53.784;10.440;2023-04-15T07:36:26;7.70;99.90
7155;DHT22;3619;53.784;10.440;2023-04-15T07:39:10;7.70;99.90
7155;DHT22;3619;53.784;10.440;2023-04-15T07:41:46;7.80;99.90
7155;DHT22;3619;53.784;10.440;2023-04-15T07:44:20;7.80;99.90
7155;DHT22;3619;53.784;10.440;2023-04-15T07:47:04;7.80;99.90
7155;DHT22;3619;53.784;10.440;2023-04-15T07:59:44;7.90;99.90
7155;DHT22;3619;53.784;10.440;2023-04-15T08:02:16;8.00;99.90
7155;DHT22;3619;53.784;10.440;2023-04-15T08:04:52;8.10;99.90
7155;DHT22;3619;53.784;10.440;2023-04-15T08:07:23;8.10;99.90
7155;DHT22;3619;53.784;10.440;2023-04-15T08:09:52;8.20;99.90
7155;DHT22;3619;53.784;10.440;2023-04-15T08:13:02;8.10;99.90
7155;DHT22;3619;53.784;10.440;2023-04-15T08:15:23;8.10;99.90
7155;DHT22;3619;53.784;10.440;2023-04-15T08:18:01;8.10;99.90
7155;DHT22;3619;53.784;10.440;2023-04-15T08:20:33;8.20;99.90
7155;DHT22;3619;53.784;10.440;2023-04-15T08:23:01;8.10;99.90
7155;DHT22;3619;53.784;10.440;2023-04-15T08:25:30;8.20;99.90
7155;DHT22;3619;53.784;10.440;2023-04-15T08:27:58;8.20;99.90
7155;DHT22;3619;53.784;10.440;2023-04-15T08:30:30;8.20;99.90
7155;DHT22;3619;53.784;10.440;2023-04-15T08:33:03;8.30;99.90
7155;DHT22;3619;53.784;10.440;2023-04-15T08:35:32;8.40;99.90
7155;DHT22;3619;53.784;10.440;2023-04-15T08:38:14;8.40;99.90
7155;DHT22;3619;53.784;10.440;2023-04-15T08:41:06;8.40;99.90
7155;DHT22;3619;53.784;10.440;2023-04-15T08:43:48;8.40;99.90
7155;DHT22;3619;53.784;10.440;2023-04-15T08:46:23;8.30;99.90
7155;DHT22;3619;53.784;10.440;2023-04-15T08:48:56;8.30;99.90
7155;DHT22;3619;53.784;10.440;2023-04-15T08:51:30;8.40;99.90
7155;DHT22;3619;53.784;10.440;2023-04-15T08:54:00;8.40;99.90
7155;DHT22;3619;53.784;10.440;2023-04-15T08:56:35;8.60;99.90
7155;DHT22;3619;53.784;10.440;2023-04-15T08:59:11;8.80;99.90
7155;DHT22;3619;53.784;10.440;2023-04-15T09:01:44;9.10;99.90
7155;DHT22;3619;53.784;10.440;2023-04-15T09:04:22;9.30;99.90
7155;DHT22;3619;53.784;10.440;2023-04-15T09:07:00;9.40;99.90
7155;DHT22;3619;53.784;10.440;2023-04-15T09:09:34;9.50;99.90
7155;DHT22;3619;53.784;10.440;2023-04-15T09:12:10;9.70;99.90
7155;DHT22;3619;53.784;10.440;2023-04-15T09:14:46;9.70;99.90
7155;DHT22;3619;53.784;10.440;2023-04-15T09:17:33;9.70;99.90
7155;DHT22;3619;53.784;10.440;2023-04-15T09:20:12;9.70;99.90
7155;DHT22;3619;53.784;10.440;2023-04-15T09:22:51;9.80;99.90
7155;DHT22;3619;53.784;10.440;2023-04-15T09:25:25;10.10;99.90
7155;DHT22;3619;53.784;10.440;2023-04-15T09:27:54;10.20;99.90
7155;DHT22;3619;53.784;10.440;2023-04-15T09:30:23;10.30;99.90
7155;DHT22;3619;53.784;10.440;2023-04-15T09:32:52;10.10;99.90
7155;DHT22;3619;53.784;10.440;2023-04-15T09:35:20;10.10;99.90
7155;DHT22;3619;53.784;10.440;2023-04-15T09:37:49;10.00;99.90
7155;DHT22;3619;53.784;10.440;2023-04-15T09:40:30;9.90;99.90
7155;DHT22;3619;53.784;10.440;2023-04-15T09:42:58;10.00;99.90
7155;DHT22;3619;53.784;10.440;2023-04-15T09:45:26;10.30;99.90
7155;DHT22;3619;53.784;10.440;2023-04-15T09:47:56;10.60;99.90
7155;DHT22;3619;53.784;10.440;2023-04-15T09:50:27;10.90;99.90
7155;DHT22;3619;53.784;10.440;2023-04-15T09:53:29;11.40;99.90
7155;DHT22;3619;53.784;10.440;2023-04-15T09:56:00;11.60;99.90
7155;DHT22;3619;53.784;10.440;2023-04-15T09:58:33;11.40;99.90
7155;DHT22;3619;53.784;10.440;2023-04-15T10:01:05;11.50;99.90
7155;DHT22;3619;53.784;10.440;2023-04-15T10:03:49;11.50;99.90
7155;DHT22;3619;53.784;10.440;2023-04-15T10:06:44;11.50;99.90
7155;DHT22;3619;53.784;10.440;2023-04-15T10:09:17;11.30;99.90
7155;DHT22;3619;53.784;10.440;2023-04-15T10:11:53;11.40;99.90
7155;DHT22;3619;53.784;10.440;2023-04-15T10:16:03;11.40;99.90
7155;DHT22;3619;53.784;10.440;2023-04-15T10:17:32;11.40;99.90
7155;DHT22;3619;53.784;10.440;2023-04-15T10:20:38;11.60;99.90
7155;DHT22;3619;53.784;10.440;2023-04-15T10:23:12;11.90;99.90
7155;DHT22;3619;53.784;10.440;2023-04-15T10:26:13;12.10;99.90
7155;DHT22;3619;53.784;10.440;2023-04-15T10:28:51;12.30;99.90
7155;DHT22;3619;53.784;10.440;2023-04-15T10:31:18;12.30;99.90
7155;DHT22;3619;53.784;10.440;2023-04-15T10:33:55;12.30;99.90
7155;DHT22;3619;53.784;10.440;2023-04-15T10:36:47;12.30;99.90
7155;DHT22;3619;53.784;10.440;2023-04-15T10:39:41;12.30;99.90
7155;DHT22;3619;53.784;10.440;2023-04-15T10:42:16;12.40;99.90
7155;DHT22;3619;53.784;10.440;2023-04-15T10:44:48;12.30;99.90
7155;DHT22;3619;53.784;10.440;2023-04-15T10:47:18;12.10;99.90
7155;DHT22;3619;53.784;10.440;2023-04-15T10:49:56;11.90;99.90
7155;DHT22;3619;53.784;10.440;2023-04-15T10:52:45;11.90;99.90
7155;DHT22;3619;53.784;10.440;2023-04-15T10:55:14;11.90;99.90
7155;DHT22;3619;53.784;10.440;2023-04-15T10:57:42;12.00;99.90
7155;DHT22;3619;53.784;10.440;2023-04-15T11:00:32;12.20;99.90
7155;DHT22;3619;53.784;10.440;2023-04-15T11:03:05;12.40;99.90
7155;DHT22;3619;53.784;10.440;2023-04-15T11:05:51;12.40;99.90
7155;DHT22;3619;53.784;10.440;2023-04-15T11:08:57;12.30;99.90
7155;DHT22;3619;53.784;10.440;2023-04-15T11:14:36;12.00;99.90
7155;DHT22;3619;53.784;10.440;2023-04-15T11:17:06;11.70;99.90
7155;DHT22;3619;53.784;10.440;2023-04-15T11:20:39;11.60;99.90
7155;DHT22;3619;53.784;10.440;2023-04-15T11:23:52;11.70;99.90
7155;DHT22;3619;53.784;10.440;2023-04-15T11:25:43;11.60;99.90
7155;DHT22;3619;53.784;10.440;2023-04-15T11:28:11;11.30;99.90
7155;DHT22;3619;53.784;10.440;2023-04-15T11:30:39;11.20;99.90
7155;DHT22;3619;53.784;10.440;2023-04-15T11:33:07;11.30;99.90
7155;DHT22;3619;53.784;10.440;2023-04-15T11:35:36;11.30;99.90
7155;DHT22;3619;53.784;10.440;2023-04-15T11:38:17;11.00;99.90
7155;DHT22;3619;53.784;10.440;2023-04-15T11:40:57;10.90;99.90
7155;DHT22;3619;53.784;10.440;2023-04-15T11:43:53;11.00;99.90
7155;DHT22;3619;53.784;10.440;2023-04-15T11:46:30;10.90;99.90
7155;DHT22;3619;53.784;10.440;2023-04-15T11:49:07;11.10;99.90
7155;DHT22;3619;53.784;10.440;2023-04-15T11:51:34;11.00;99.90
7155;DHT22;3619;53.784;10.440;2023-04-15T11:54:27;11.10;99.90
7155;DHT22;3619;53.784;10.440;2023-04-15T11:57:16;11.20;99.90
7155;DHT22;3619;53.784;10.440;2023-04-15T12:00:18;11.10;99.90
7155;DHT22;3619;53.784;10.440;2023-04-15T12:06:17;11.20;99.90
7155;DHT22;3619;53.784;10.440;2023-04-15T12:08:55;11.30;99.90
7155;DHT22;3619;53.784;10.440;2023-04-15T12:11:28;11.50;99.90
7155;DHT22;3619;53.784;10.440;2023-04-15T12:14:08;11.60;99.90
7155;DHT22;3619;53.784;10.440;2023-04-15T12:16:42;11.90;99.90
7155;DHT22;3619;53.784;10.440;2023-04-15T12:19:16;12.00;99.90
7155;DHT22;3619;53.784;10.440;2023-04-15T12:24:56;12.00;99.90
7155;DHT22;3619;53.784;10.440;2023-04-15T12:27:41;11.90;99.90
7155;DHT22;3619;53.784;10.440;2023-04-15T12:30:43;11.80;99.90
7155;DHT22;3619;53.784;10.440;2023-04-15T12:33:31;11.90;99.90
7155;DHT22;3619;53.784;10.440;2023-04-15T12:36:00;11.90;99.90
7155;DHT22;3619;53.784;10.440;2023-04-15T12:38:31;12.00;99.90
7155;DHT22;3619;53.784;10.440;2023-04-15T12:41:11;12.30;99.90
7155;DHT22;3619;53.784;10.440;2023-04-15T12:43:42;12.40;99.90
7155;DHT22;3619;53.784;10.440;2023-04-15T12:46:26;12.50;99.90
7155;DHT22;3619;53.784;10.440;2023-04-15T12:49:14;12.80;99.90
7155;DHT22;3619;53.784;10.440;2023-04-15T12:55:21;13.20;99.90
7155;DHT22;3619;53.784;10.440;2023-04-15T12:58:04;13.10;99.90
7155;DHT22;3619;53.784;10.440;2023-04-15T13:00:49;13.10;99.90
7155;DHT22;3619;53.784;10.440;2023-04-15T13:06:48;13.00;99.90
7155;DHT22;3619;53.784;10.440;2023-04-15T13:09:21;12.80;99.90
7155;DHT22;3619;53.784;10.440;2023-04-15T13:12:05;12.60;99.90
7155;DHT22;3619;53.784;10.440;2023-04-15T13:16:46;12.70;99.90
7155;DHT22;3619;53.784;10.440;2023-04-15T13:18:00;12.90;99.90
7155;DHT22;3619;53.784;10.440;2023-04-15T13:21:09;12.80;99.90
7155;DHT22;3619;53.784;10.440;2023-04-15T13:27:19;12.80;99.90
7155;DHT22;3619;53.784;10.440;2023-04-15T13:29:47;12.80;99.90
7155;DHT22;3619;53.784;10.440;2023-04-15T13:33:28;13.00;99.90
7155;DHT22;3619;53.784;10.440;2023-04-15T13:36:01;13.00;99.90
7155;DHT22;3619;53.784;10.440;2023-04-15T13:38:47;13.10;99.90
7155;DHT22;3619;53.784;10.440;2023-04-15T14:12:49;12.60;99.90
7155;DHT22;3619;53.784;10.440;2023-04-15T14:15:38;12.60;99.90
7155;DHT22;3619;53.784;10.440;2023-04-15T14:18:11;12.80;99.90
7155;DHT22;3619;53.784;10.440;2023-04-15T14:36:56;12.60;99.90
7155;DHT22;3619;53.784;10.440;2023-04-15T14:39:49;12.60;99.90
7155;DHT22;3619;53.784;10.440;2023-04-15T14:42:47;12.60;99.90
7155;DHT22;3619;53.784;10.440;2023-04-15T14:49:06;12.90;99.90
7155;DHT22;3619;53.784;10.440;2023-04-15T14:55:46;12.80;99.90
7155;DHT22;3619;53.784;10.440;2023-04-15T14:58:58;12.90;99.90
7155;DHT22;3619;53.784;10.440;2023-04-15T15:01:31;12.90;99.90
7155;DHT22;3619;53.784;10.440;2023-04-15T15:04:18;12.80;99.90
7155;DHT22;3619;53.784;10.440;2023-04-15T15:10:39;12.10;99.90
7155;DHT22;3619;53.784;10.440;2023-04-15T15:13:11;12.10;99.90
7155;DHT22;3619;53.784;10.440;2023-04-15T15:15:42;11.90;99.90
7155;DHT22;3619;53.784;10.440;2023-04-15T15:18:10;11.70;99.90
7155;DHT22;3619;53.784;10.440;2023-04-15T15:20:42;11.40;99.90
7155;DHT22;3619;53.784;10.440;2023-04-15T15:23:39;11.20;99.90
7155;DHT22;3619;53.784;10.440;2023-04-15T15:26:23;11.00;99.90
7155;DHT22;3619;53.784;10.440;2023-04-15T15:29:08;11.00;99.90
7155;DHT22;3619;53.784;10.440;2023-04-15T15:31:36;11.00;99.90
7155;DHT22;3619;53.784;10.440;2023-04-15T15:34:07;10.90;99.90
7155;DHT22;3619;53.784;10.440;2023-04-15T15:36:38;11.00;99.90
7155;DHT22;3619;53.784;10.440;2023-04-15T15:40:07;10.80;99.90
7155;DHT22;3619;53.784;10.440;2023-04-15T15:43:15;10.80;99.90
7155;DHT22;3619;53.784;10.440;2023-04-15T15:45:44;10.80;99.90
7155;DHT22;3619;53.784;10.440;2023-04-15T15:48:27;10.90;99.90
7155;DHT22;3619;53.784;10.440;2023-04-15T15:51:19;10.80;99.90
7155;DHT22;3619;53.784;10.440;2023-04-15T15:53:53;11.00;99.90
7155;DHT22;3619;53.784;10.440;2023-04-15T15:56:25;10.90;99.90
7155;DHT22;3619;53.784;10.440;2023-04-15T16:11:08;10.70;99.90
7155;DHT22;3619;53.784;10.440;2023-04-15T16:14:11;10.60;99.90
7155;DHT22;3619;53.784;10.440;2023-04-15T16:16:50;10.60;99.90
7155;DHT22;3619;53.784;10.440;2023-04-15T16:20:29;10.60;99.90
7155;DHT22;3619;53.784;10.440;2023-04-15T16:23:28;10.60;99.90
7155;DHT22;3619;53.784;10.440;2023-04-15T16:25:54;10.50;99.90
7155;DHT22;3619;53.784;10.440;2023-04-15T16:32:04;10.40;99.90
7155;DHT22;3619;53.784;10.440;2023-04-15T16:35:05;10.10;99.90
7155;DHT22;3619;53.784;10.440;2023-04-15T16:41:14;10.00;99.90
7155;DHT22;3619;53.784;10.440;2023-04-15T16:43:58;9.90;99.90
7155;DHT22;3619;53.784;10.440;2023-04-15T16:46:51;9.90;99.90
7155;DHT22;3619;53.784;10.440;2023-04-15T16:49:40;9.90;99.90
7155;DHT22;3619;53.784;10.440;2023-04-15T16:53:03;9.80;99.90
7155;DHT22;3619;53.784;10.440;2023-04-15T16:59:07;9.50;99.90
7155;DHT22;3619;53.784;10.440;2023-04-15T17:03:20;9.40;99.90
7155;DHT22;3619;53.784;10.440;2023-04-15T17:19:45;8.90;99.90
7155;DHT22;3619;53.784;10.440;2023-04-15T18:09:48;8.00;99.90
7155;DHT22;3619;53.784;10.440;2023-04-15T18:12:27;8.10;99.90
7155;DHT22;3619;53.784;10.440;2023-04-15T18:15:19;8.10;99.90
7155;DHT22;3619;53.784;10.440;2023-04-15T18:21:43;8.10;99.90
7155;DHT22;3619;53.784;10.440;2023-04-15T18:25:01;8.00;99.90
7155;DHT22;3619;53.784;10.440;2023-04-15T18:48:21;7.80;99.90
7155;DHT22;3619;53.784;10.440;2023-04-15T18:58:31;7.80;99.90
7155;DHT22;3619;53.784;10.440;2023-04-15T19:20:39;7.70;99.90
7155;DHT22;3619;53.784;10.440;2023-04-15T19:24:49;7.70;99.90
7155;DHT22;3619;53.784;10.440;2023-04-15T19:26:53;7.70;99.90
7155;DHT22;3619;53.784;10.440;2023-04-15T19:29:42;7.70;99.90
7155;DHT22;3619;53.784;10.440;2023-04-15T19:49:06;7.60;99.90
7155;DHT22;3619;53.784;10.440;2023-04-15T19:55:34;7.60;99.90
7155;DHT22;3619;53.784;10.440;2023-04-15T20:01:18;7.60;99.90
7155;DHT22;3619;53.784;10.440;2023-04-15T20:03:52;7.50;99.90
7155;DHT22;3619;53.784;10.440;2023-04-15T20:06:35;7.50;99.90
7155;DHT22;3619;53.784;10.440;2023-04-15T20:09:04;7.40;99.90
7155;DHT22;3619;53.784;10.440;2023-04-15T20:11:33;7.40;99.90
7155;DHT22;3619;53.784;10.440;2023-04-15T20:14:07;7.40;99.90
7155;DHT22;3619;53.784;10.440;2023-04-15T20:16:38;7.40;99.90
7155;DHT22;3619;53.784;10.440;2023-04-15T20:22:11;7.40;99.90
7155;DHT22;3619;53.784;10.440;2023-04-15T20:24:54;7.40;99.90
7155;DHT22;3619;53.784;10.440;2023-04-15T20:27:40;7.40;99.90
7155;DHT22;3619;53.784;10.440;2023-04-15T20:30:24;7.40;99.90
7155;DHT22;3619;53.784;10.440;2023-04-15T20:32:53;7.40;99.90
7155;DHT22;3619;53.784;10.440;2023-04-15T20:35:33;7.40;99.90
7155;DHT22;3619;53.784;10.440;2023-04-15T20:38:36;7.40;99.90
7155;DHT22;3619;53.784;10.440;2023-04-15T20:41:30;7.40;99.90
7155;DHT22;3619;53.784;10.440;2023-04-15T20:44:23;7.40;99.90
7155;DHT22;3619;53.784;10.440;2023-04-15T20:46:56;7.50;99.90
7155;DHT22;3619;53.784;10.440;2023-04-15T20:49:32;7.50;99.90
7155;DHT22;3619;53.784;10.440;2023-04-15T20:52:00;7.50;99.90
7155;DHT22;3619;53.784;10.440;2023-04-15T20:54:29;7.50;99.90
7155;DHT22;3619;53.784;10.440;2023-04-15T21:00:26;7.50;99.90
7155;DHT22;3619;53.784;10.440;2023-04-15T21:03:35;7.40;99.90
7155;DHT22;3619;53.784;10.440;2023-04-15T21:06:31;7.40;99.90
7155;DHT22;3619;53.784;10.440;2023-04-15T21:09:32;7.50;99.90
7155;DHT22;3619;53.784;10.440;2023-04-15T21:15:55;7.40;99.90
7155;DHT22;3619;53.784;10.440;2023-04-15T21:18:49;7.40;99.90
7155;DHT22;3619;53.784;10.440;2023-04-15T21:21:23;7.40;99.90
7155;DHT22;3619;53.784;10.440;2023-04-15T21:24:36;7.40;99.90
7155;DHT22;3619;53.784;10.440;2023-04-15T21:34:22;7.40;99.90
7155;DHT22;3619;53.784;10.440;2023-04-15T21:36:49;7.40;99.90
7155;DHT22;3619;53.784;10.440;2023-04-15T21:39:27;7.50;99.90
7155;DHT22;3619;53.784;10.440;2023-04-15T21:42:35;7.40;99.90
7155;DHT22;3619;53.784;10.440;2023-04-15T21:45:02;7.40;99.90
7155;DHT22;3619;53.784;10.440;2023-04-15T21:47:31;7.40;99.90
7155;DHT22;3619;53.784;10.440;2023-04-15T21:53:19;7.40;99.90
7155;DHT22;3619;53.784;10.440;2023-04-15T21:58:59;7.40;99.90
7155;DHT22;3619;53.784;10.440;2023-04-15T22:02:13;7.30;99.90
7155;DHT22;3619;53.784;10.440;2023-04-15T22:04:29;7.30;99.90
7155;DHT22;3619;53.784;10.440;2023-04-15T22:07:16;7.30;99.90
7155;DHT22;3619;53.784;10.440;2023-04-15T22:09:58;7.30;99.90
7155;DHT22;3619;53.784;10.440;2023-04-15T22:12:48;7.30;99.90
7155;DHT22;3619;53.784;10.440;2023-04-15T22:15:44;7.40;99.90
7155;DHT22;3619;53.784;10.440;2023-04-15T22:18:41;7.40;99.90
7155;DHT22;3619;53.784;10.440;2023-04-15T22:24:50;7.40;99.90
7155;DHT22;3619;53.784;10.440;2023-04-15T22:30:58;7.40;99.90
7155;DHT22;3619;53.784;10.440;2023-04-15T22:37:18;7.40;99.90
7155;DHT22;3619;53.784;10.440;2023-04-15T22:40:27;7.40;99.90
7155;DHT22;3619;53.784;10.440;2023-04-15T22:43:40;7.40;99.90
7155;DHT22;3619;53.784;10.440;2023-04-15T22:46:30;7.40;99.90
7155;DHT22;3619;53.784;10.440;2023-04-15T22:49:27;7.30;99.90
7155;DHT22;3619;53.784;10.440;2023-04-15T22:56:22;7.20;99.90
7155;DHT22;3619;53.784;10.440;2023-04-15T22:59:20;7.10;99.90
7155;DHT22;3619;53.784;10.440;2023-04-15T23:02:15;7.10;99.90
7155;DHT22;3619;53.784;10.440;2023-04-15T23:04:58;7.00;99.90
7155;DHT22;3619;53.784;10.440;2023-04-15T23:07:38;7.00;99.90
7155;DHT22;3619;53.784;10.440;2023-04-15T23:10:09;7.00;99.90
7155;DHT22;3619;53.784;10.440;2023-04-15T23:12:42;7.00;99.90
7155;DHT22;3619;53.784;10.440;2023-04-15T23:15:16;6.90;99.90
7155;DHT22;3619;53.784;10.440;2023-04-15T23:17:53;6.90;99.90
7155;DHT22;3619;53.784;10.440;2023-04-15T23:20:30;6.90;99.90
7155;DHT22;3619;53.784;10.440;2023-04-15T23:22:57;6.80;99.90
7155;DHT22;3619;53.784;10.440;2023-04-15T23:25:24;6.80;99.90
7155;DHT22;3619;53.784;10.440;2023-04-15T23:27:53;6.80;99.90
7155;DHT22;3619;53.784;10.440;2023-04-15T23:30:31;6.90;99.90
7155;DHT22;3619;53.784;10.440;2023-04-15T23:32:58;6.90;99.90
7155;DHT22;3619;53.784;10.440;2023-04-15T23:35:27;6.90;99.90
7155;DHT22;3619;53.784;10.440;2023-04-15T23:37:55;6.90;99.90
7155;DHT22;3619;53.784;10.440;2023-04-15T23:43:30;7.00;99.90
7155;DHT22;3619;53.784;10.440;2023-04-15T23:46:43;7.10;99.90
7155;DHT22;3619;53.784;10.440;2023-04-15T23:49:15;7.10;99.90
7155;DHT22;3619;53.784;10.440;2023-04-15T23:52:09;7.10;99.90
7155;DHT22;3619;53.784;10.440;2023-04-15T23:55:01;7.20;99.90
7155;DHT22;3619;53.784;10.440;2023-04-15T23:57:32;7.20;99.90
